sensor_id;sensor_type;location;lat;lon;timestamp;pressure;altitude;pressure_sealevel;temperature;humidity
59873;BME280;50750;51.636;4.948;2023-04-07T00:01:43;101650.10;;;13.28;59.83
59873;BME280;50750;51.636;4.948;2023-04-07T00:04:09;101649.89;;;13.29;59.76
59873;BME280;50750;51.636;4.948;2023-04-07T00:06:36;101647.98;;;13.28;59.69
59873;BME280;50750;51.636;4.948;2023-04-07T00:09:02;101647.44;;;13.28;59.62
59873;BME280;50750;51.636;4.948;2023-04-07T00:11:29;101648.33;;;13.28;59.85
59873;BME280;50750;51.636;4.948;2023-04-07T00:13:55;101646.74;;;13.28;59.73
59873;BME280;50750;51.636;4.948;2023-04-07T00:16:22;101648.16;;;13.28;59.84
59873;BME280;50750;51.636;4.948;2023-04-07T00:18:49;101648.34;;;13.28;59.89
59873;BME280;50750;51.636;4.948;2023-04-07T00:21:15;101649.56;;;13.28;59.80
59873;BME280;50750;51.636;4.948;2023-04-07T00:23:42;101654.13;;;13.29;59.84
59873;BME280;50750;51.636;4.948;2023-04-07T00:26:08;101654.85;;;13.28;59.76
59873;BME280;50750;51.636;4.948;2023-04-07T00:28:35;101653.27;;;13.28;59.84
59873;BME280;50750;51.636;4.948;2023-04-07T00:31:02;101656.27;;;13.28;59.81
59873;BME280;50750;51.636;4.948;2023-04-07T00:33:29;101659.61;;;13.28;59.92
59873;BME280;50750;51.636;4.948;2023-04-07T00:35:55;101663.48;;;13.28;59.88
59873;BME280;50750;51.636;4.948;2023-04-07T00:38:24;101661.91;;;13.27;59.98
59873;BME280;50750;51.636;4.948;2023-04-07T00:40:57;101661.91;;;13.26;59.79
59873;BME280;50750;51.636;4.948;2023-04-07T00:43:24;101663.33;;;13.26;59.77
59873;BME280;50750;51.636;4.948;2023-04-07T00:45:52;101664.71;;;13.27;59.85
59873;BME280;50750;51.636;4.948;2023-04-07T00:48:20;101660.52;;;13.26;59.84
59873;BME280;50750;51.636;4.948;2023-04-07T00:50:47;101664.73;;;13.26;59.86
59873;BME280;50750;51.636;4.948;2023-04-07T00:53:14;101663.86;;;13.26;59.85
59873;BME280;50750;51.636;4.948;2023-04-07T00:55:40;101665.45;;;13.26;59.74
59873;BME280;50750;51.636;4.948;2023-04-07T00:58:07;101665.09;;;13.25;59.81
59873;BME280;50750;51.636;4.948;2023-04-07T01:03:45;101659.64;;;13.26;59.85
59873;BME280;50750;51.636;4.948;2023-04-07T01:06:15;101661.40;;;13.26;59.82
59873;BME280;50750;51.636;4.948;2023-04-07T01:08:53;101663.16;;;13.25;59.87
59873;BME280;50750;51.636;4.948;2023-04-07T01:11:25;101658.23;;;13.25;59.96
59873;BME280;50750;51.636;4.948;2023-04-07T01:13:54;101657.18;;;13.25;59.69
59873;BME280;50750;51.636;4.948;2023-04-07T01:16:27;101658.59;;;13.25;59.74
59873;BME280;50750;51.636;4.948;2023-04-07T01:19:00;101654.38;;;13.25;59.86
59873;BME280;50750;51.636;4.948;2023-04-07T01:21:32;101657.36;;;13.25;59.83
59873;BME280;50750;51.636;4.948;2023-04-07T01:24:21;101661.40;;;13.25;59.94
59873;BME280;50750;51.636;4.948;2023-04-07T01:26:56;101659.83;;;13.25;59.72
59873;BME280;50750;51.636;4.948;2023-04-07T01:29:41;101661.59;;;13.25;59.79
59873;BME280;50750;51.636;4.948;2023-04-07T01:32:14;101660.52;;;13.25;59.89
59873;BME280;50750;51.636;4.948;2023-04-07T01:34:43;101660.01;;;13.25;59.70
59873;BME280;50750;51.636;4.948;2023-04-07T01:37:11;101658.41;;;13.25;59.75
59873;BME280;50750;51.636;4.948;2023-04-07T01:39:38;101661.77;;;13.25;59.62
59873;BME280;50750;51.636;4.948;2023-04-07T01:42:06;101663.88;;;13.25;59.73
59873;BME280;50750;51.636;4.948;2023-04-07T01:44:34;101667.75;;;13.25;59.73
59873;BME280;50750;51.636;4.948;2023-04-07T01:47:01;101669.67;;;13.25;59.84
59873;BME280;50750;51.636;4.948;2023-04-07T01:49:29;101674.77;;;13.25;59.79
59873;BME280;50750;51.636;4.948;2023-04-07T01:51:58;101672.67;;;13.25;59.83
59873;BME280;50750;51.636;4.948;2023-04-07T01:54:25;101677.42;;;13.24;59.90
59873;BME280;50750;51.636;4.948;2023-04-07T01:56:52;101675.48;;;13.25;59.80
59873;BME280;50750;51.636;4.948;2023-04-07T01:59:19;101680.08;;;13.24;59.82
59873;BME280;50750;51.636;4.948;2023-04-07T02:01:46;101678.30;;;13.25;59.83
59873;BME280;50750;51.636;4.948;2023-04-07T02:04:33;101678.84;;;13.24;59.88
59873;BME280;50750;51.636;4.948;2023-04-07T02:07:08;101676.55;;;13.24;59.78
59873;BME280;50750;51.636;4.948;2023-04-07T02:09:38;101677.42;;;13.24;59.76
59873;BME280;50750;51.636;4.948;2023-04-07T02:12:08;101678.66;;;13.24;59.86
59873;BME280;50750;51.636;4.948;2023-04-07T02:14:37;101678.14;;;13.23;59.92
59873;BME280;50750;51.636;4.948;2023-04-07T02:17:04;101678.48;;;13.24;59.82
59873;BME280;50750;51.636;4.948;2023-04-07T02:19:32;101678.31;;;13.24;59.76
59873;BME280;50750;51.636;4.948;2023-04-07T02:22:03;101682.36;;;13.24;59.91
59873;BME280;50750;51.636;4.948;2023-04-07T02:24:30;101681.48;;;13.24;59.86
59873;BME280;50750;51.636;4.948;2023-04-07T02:26:57;101683.95;;;13.23;59.83
59873;BME280;50750;51.636;4.948;2023-04-07T02:29:26;101686.59;;;13.24;59.85
59873;BME280;50750;51.636;4.948;2023-04-07T02:31:52;101686.25;;;13.23;59.88
59873;BME280;50750;51.636;4.948;2023-04-07T02:34:19;101686.23;;;13.24;59.97
59873;BME280;50750;51.636;4.948;2023-04-07T02:36:45;101684.15;;;13.23;59.76
59873;BME280;50750;51.636;4.948;2023-04-07T02:39:12;101686.08;;;13.23;59.89
59873;BME280;50750;51.636;4.948;2023-04-07T02:41:38;101688.38;;;13.23;59.85
59873;BME280;50750;51.636;4.948;2023-04-07T02:44:05;101689.79;;;13.23;59.78
59873;BME280;50750;51.636;4.948;2023-04-07T02:46:31;101690.85;;;13.22;59.90
59873;BME280;50750;51.636;4.948;2023-04-07T02:48:58;101692.42;;;13.23;59.84
59873;BME280;50750;51.636;4.948;2023-04-07T02:51:24;101694.71;;;13.22;59.97
59873;BME280;50750;51.636;4.948;2023-04-07T02:53:52;101696.13;;;13.23;59.88
59873;BME280;50750;51.636;4.948;2023-04-07T02:56:18;101697.52;;;13.23;59.73
59873;BME280;50750;51.636;4.948;2023-04-07T02:58:45;101694.54;;;13.22;59.74
59873;BME280;50750;51.636;4.948;2023-04-07T03:01:11;101697.01;;;13.22;59.82
59873;BME280;50750;51.636;4.948;2023-04-07T03:03:38;101692.98;;;13.22;59.90
59873;BME280;50750;51.636;4.948;2023-04-07T03:06:05;101695.78;;;13.22;59.99
59873;BME280;50750;51.636;4.948;2023-04-07T03:08:32;101692.44;;;13.22;60.03
59873;BME280;50750;51.636;4.948;2023-04-07T03:10:58;101689.46;;;13.22;59.93
59873;BME280;50750;51.636;4.948;2023-04-07T03:13:25;101687.00;;;13.22;59.93
59873;BME280;50750;51.636;4.948;2023-04-07T03:15:53;101689.29;;;13.21;59.81
59873;BME280;50750;51.636;4.948;2023-04-07T03:18:19;101690.17;;;13.21;59.90
59873;BME280;50750;51.636;4.948;2023-04-07T03:20:47;101689.65;;;13.21;59.93
59873;BME280;50750;51.636;4.948;2023-04-07T03:23:14;101689.48;;;13.21;59.80
59873;BME280;50750;51.636;4.948;2023-04-07T03:25:40;101690.17;;;13.21;59.81
59873;BME280;50750;51.636;4.948;2023-04-07T03:28:07;101688.94;;;13.21;60.01
59873;BME280;50750;51.636;4.948;2023-04-07T03:30:33;101688.08;;;13.21;59.78
59873;BME280;50750;51.636;4.948;2023-04-07T03:33:00;101686.67;;;13.21;59.79
59873;BME280;50750;51.636;4.948;2023-04-07T03:35:26;101683.35;;;13.20;59.77
59873;BME280;50750;51.636;4.948;2023-04-07T03:37:53;101684.20;;;13.21;59.89
59873;BME280;50750;51.636;4.948;2023-04-07T03:40:20;101685.27;;;13.20;59.82
59873;BME280;50750;51.636;4.948;2023-04-07T03:42:47;101679.64;;;13.20;59.88
59873;BME280;50750;51.636;4.948;2023-04-07T03:45:13;101680.34;;;13.21;59.77
59873;BME280;50750;51.636;4.948;2023-04-07T03:47:40;101678.42;;;13.20;59.87
59873;BME280;50750;51.636;4.948;2023-04-07T03:50:08;101676.13;;;13.20;59.91
59873;BME280;50750;51.636;4.948;2023-04-07T03:52:34;101675.95;;;13.20;59.91
59873;BME280;50750;51.636;4.948;2023-04-07T03:55:01;101676.51;;;13.20;59.97
59873;BME280;50750;51.636;4.948;2023-04-07T03:57:28;101677.90;;;13.20;59.95
59873;BME280;50750;51.636;4.948;2023-04-07T03:59:54;101680.36;;;13.20;59.85
59873;BME280;50750;51.636;4.948;2023-04-07T04:02:24;101681.60;;;13.20;59.80
59873;BME280;50750;51.636;4.948;2023-04-07T04:04:51;101683.36;;;13.20;59.98
59873;BME280;50750;51.636;4.948;2023-04-07T04:07:18;101682.32;;;13.19;59.81
59873;BME280;50750;51.636;4.948;2023-04-07T04:09:44;101681.61;;;13.19;59.90
59873;BME280;50750;51.636;4.948;2023-04-07T04:12:11;101683.02;;;13.19;59.85
59873;BME280;50750;51.636;4.948;2023-04-07T04:14:37;101685.14;;;13.19;59.83
59873;BME280;50750;51.636;4.948;2023-04-07T04:17:04;101684.96;;;13.18;59.96
59873;BME280;50750;51.636;4.948;2023-04-07T04:19:30;101692.89;;;13.18;59.79
59873;BME280;50750;51.636;4.948;2023-04-07T04:21:57;101689.19;;;13.18;59.88
59873;BME280;50750;51.636;4.948;2023-04-07T04:24:23;101690.08;;;13.18;59.79
59873;BME280;50750;51.636;4.948;2023-04-07T04:26:50;101691.31;;;13.18;59.91
59873;BME280;50750;51.636;4.948;2023-04-07T04:29:17;101690.79;;;13.18;59.69
59873;BME280;50750;51.636;4.948;2023-04-07T04:31:43;101693.27;;;13.18;59.93
59873;BME280;50750;51.636;4.948;2023-04-07T04:34:10;101695.38;;;13.17;60.09
59873;BME280;50750;51.636;4.948;2023-04-07T04:36:37;101696.63;;;13.17;59.81
59873;BME280;50750;51.636;4.948;2023-04-07T04:39:05;101695.57;;;13.17;59.82
59873;BME280;50750;51.636;4.948;2023-04-07T04:41:32;101695.05;;;13.17;59.95
59873;BME280;50750;51.636;4.948;2023-04-07T04:43:59;101696.27;;;13.17;60.05
59873;BME280;50750;51.636;4.948;2023-04-07T04:46:25;101695.74;;;13.17;59.87
59873;BME280;50750;51.636;4.948;2023-04-07T04:48:52;101698.40;;;13.16;59.77
59873;BME280;50750;51.636;4.948;2023-04-07T04:51:19;101699.80;;;13.16;59.87
59873;BME280;50750;51.636;4.948;2023-04-07T04:53:46;101705.61;;;13.16;59.92
59873;BME280;50750;51.636;4.948;2023-04-07T04:56:12;101706.15;;;13.16;59.88
59873;BME280;50750;51.636;4.948;2023-04-07T04:58:39;101710.02;;;13.15;59.86
59873;BME280;50750;51.636;4.948;2023-04-07T05:01:07;101711.25;;;13.15;59.76
59873;BME280;50750;51.636;4.948;2023-04-07T05:03:34;101710.19;;;13.16;59.94
59873;BME280;50750;51.636;4.948;2023-04-07T05:06:01;101713.19;;;13.16;59.83
59873;BME280;50750;51.636;4.948;2023-04-07T05:08:27;101714.41;;;13.16;59.78
59873;BME280;50750;51.636;4.948;2023-04-07T05:10:54;101716.17;;;13.16;59.88
59873;BME280;50750;51.636;4.948;2023-04-07T05:13:21;101718.30;;;13.15;59.74
59873;BME280;50750;51.636;4.948;2023-04-07T05:15:48;101720.59;;;13.15;59.98
59873;BME280;50750;51.636;4.948;2023-04-07T05:18:14;101721.12;;;13.15;59.92
59873;BME280;50750;51.636;4.948;2023-04-07T05:20:43;101727.10;;;13.15;59.87
59873;BME280;50750;51.636;4.948;2023-04-07T05:23:09;101729.91;;;13.15;59.99
59873;BME280;50750;51.636;4.948;2023-04-07T05:25:36;101731.15;;;13.15;59.82
59873;BME280;50750;51.636;4.948;2023-04-07T05:28:02;101732.92;;;13.15;59.90
59873;BME280;50750;51.636;4.948;2023-04-07T05:30:29;101735.36;;;13.15;59.82
59873;BME280;50750;51.636;4.948;2023-04-07T05:32:56;101734.15;;;13.15;59.94
59873;BME280;50750;51.636;4.948;2023-04-07T05:35:22;101733.44;;;13.15;59.81
59873;BME280;50750;51.636;4.948;2023-04-07T05:37:49;101735.55;;;13.15;59.71
59873;BME280;50750;51.636;4.948;2023-04-07T05:40:16;101741.52;;;13.15;60.09
59873;BME280;50750;51.636;4.948;2023-04-07T05:42:43;101743.84;;;13.14;59.91
59873;BME280;50750;51.636;4.948;2023-04-07T05:45:10;101742.26;;;13.14;59.94
59873;BME280;50750;51.636;4.948;2023-04-07T05:47:36;101746.84;;;13.14;59.95
59873;BME280;50750;51.636;4.948;2023-04-07T05:50:03;101745.08;;;13.14;59.88
59873;BME280;50750;51.636;4.948;2023-04-07T05:52:30;101745.62;;;13.14;59.88
59873;BME280;50750;51.636;4.948;2023-04-07T05:54:57;101750.35;;;13.13;59.94
59873;BME280;50750;51.636;4.948;2023-04-07T05:57:24;101751.40;;;13.13;59.92
59873;BME280;50750;51.636;4.948;2023-04-07T05:59:52;101753.52;;;13.14;59.81
59873;BME280;50750;51.636;4.948;2023-04-07T06:02:19;101757.92;;;13.13;60.15
59873;BME280;50750;51.636;4.948;2023-04-07T06:04:45;101757.77;;;13.13;60.01
59873;BME280;50750;51.636;4.948;2023-04-07T06:07:12;101758.27;;;13.13;60.06
59873;BME280;50750;51.636;4.948;2023-04-07T06:09:38;101759.33;;;13.13;59.91
59873;BME280;50750;51.636;4.948;2023-04-07T06:12:05;101760.21;;;13.13;59.91
59873;BME280;50750;51.636;4.948;2023-04-07T06:14:32;101760.73;;;13.13;59.98
59873;BME280;50750;51.636;4.948;2023-04-07T06:16:58;101761.10;;;13.13;59.92
59873;BME280;50750;51.636;4.948;2023-04-07T06:19:25;101764.25;;;13.13;59.99
59873;BME280;50750;51.636;4.948;2023-04-07T06:21:52;101767.95;;;13.13;60.01
59873;BME280;50750;51.636;4.948;2023-04-07T06:24:19;101767.25;;;13.13;60.13
59873;BME280;50750;51.636;4.948;2023-04-07T06:26:48;101769.17;;;13.13;60.02
59873;BME280;50750;51.636;4.948;2023-04-07T06:29:14;101768.64;;;13.13;59.95
59873;BME280;50750;51.636;4.948;2023-04-07T06:31:41;101771.47;;;13.13;60.03
59873;BME280;50750;51.636;4.948;2023-04-07T06:34:08;101770.96;;;13.12;60.05
59873;BME280;50750;51.636;4.948;2023-04-07T06:36:34;101768.50;;;13.12;60.05
59873;BME280;50750;51.636;4.948;2023-04-07T06:39:01;101771.86;;;13.12;59.97
59873;BME280;50750;51.636;4.948;2023-04-07T06:41:27;101772.20;;;13.12;60.04
59873;BME280;50750;51.636;4.948;2023-04-07T06:43:54;101770.61;;;13.12;60.03
59873;BME280;50750;51.636;4.948;2023-04-07T06:46:20;101769.39;;;13.12;59.85
59873;BME280;50750;51.636;4.948;2023-04-07T06:48:47;101772.55;;;13.12;59.99
59873;BME280;50750;51.636;4.948;2023-04-07T06:51:13;101777.81;;;13.12;59.95
59873;BME280;50750;51.636;4.948;2023-04-07T06:53:40;101779.39;;;13.12;59.91
59873;BME280;50750;51.636;4.948;2023-04-07T06:56:10;101783.61;;;13.13;60.03
59873;BME280;50750;51.636;4.948;2023-04-07T06:58:37;101788.36;;;13.13;60.00
59873;BME280;50750;51.636;4.948;2023-04-07T07:01:04;101789.44;;;13.12;59.99
59873;BME280;50750;51.636;4.948;2023-04-07T07:03:32;101792.92;;;13.13;60.04
59873;BME280;50750;51.636;4.948;2023-04-07T07:06:00;101798.40;;;13.12;59.77
59873;BME280;50750;51.636;4.948;2023-04-07T07:08:27;101801.56;;;13.12;60.10
59873;BME280;50750;51.636;4.948;2023-04-07T07:10:54;101805.26;;;13.12;60.01
59873;BME280;50750;51.636;4.948;2023-04-07T07:13:24;101807.89;;;13.12;60.06
59873;BME280;50750;51.636;4.948;2023-04-07T07:15:52;101808.06;;;13.12;60.10
59873;BME280;50750;51.636;4.948;2023-04-07T07:18:19;101809.46;;;13.13;60.15
59873;BME280;50750;51.636;4.948;2023-04-07T07:20:45;101810.70;;;13.13;60.15
59873;BME280;50750;51.636;4.948;2023-04-07T07:23:12;101815.98;;;13.12;60.15
59873;BME280;50750;51.636;4.948;2023-04-07T07:25:39;101816.69;;;13.12;60.13
59873;BME280;50750;51.636;4.948;2023-04-07T07:28:05;101822.14;;;13.12;60.08
59873;BME280;50750;51.636;4.948;2023-04-07T07:30:32;101824.23;;;13.13;60.20
59873;BME280;50750;51.636;4.948;2023-04-07T07:32:59;101822.11;;;13.13;59.99
59873;BME280;50750;51.636;4.948;2023-04-07T07:35:25;101822.83;;;13.13;60.15
59873;BME280;50750;51.636;4.948;2023-04-07T07:37:52;101827.77;;;13.12;59.92
59873;BME280;50750;51.636;4.948;2023-04-07T07:40:18;101832.15;;;13.13;59.94
59873;BME280;50750;51.636;4.948;2023-04-07T07:42:45;101837.27;;;13.12;60.16
59873;BME280;50750;51.636;4.948;2023-04-07T07:45:12;101839.19;;;13.12;59.94
59873;BME280;50750;51.636;4.948;2023-04-07T07:47:39;101847.64;;;13.12;59.89
59873;BME280;50750;51.636;4.948;2023-04-07T07:50:06;101849.56;;;13.12;60.19
59873;BME280;50750;51.636;4.948;2023-04-07T07:52:33;101847.98;;;13.12;60.08
59873;BME280;50750;51.636;4.948;2023-04-07T07:55:00;101848.48;;;13.13;60.10
59873;BME280;50750;51.636;4.948;2023-04-07T07:57:26;101854.30;;;13.13;60.27
59873;BME280;50750;51.636;4.948;2023-04-07T07:59:53;101858.54;;;13.13;60.09
59873;BME280;50750;51.636;4.948;2023-04-07T08:02:19;101860.64;;;13.13;60.22
59873;BME280;50750;51.636;4.948;2023-04-07T08:04:46;101861.15;;;13.13;60.16
59873;BME280;50750;51.636;4.948;2023-04-07T08:07:13;101864.69;;;13.13;60.09
59873;BME280;50750;51.636;4.948;2023-04-07T08:09:39;101865.74;;;13.12;60.15
59873;BME280;50750;51.636;4.948;2023-04-07T08:12:06;101866.60;;;13.13;60.05
59873;BME280;50750;51.636;4.948;2023-04-07T08:14:32;101865.38;;;13.13;60.15
59873;BME280;50750;51.636;4.948;2023-04-07T08:16:59;101869.77;;;13.13;60.07
59873;BME280;50750;51.636;4.948;2023-04-07T08:19:26;101870.48;;;13.13;60.02
59873;BME280;50750;51.636;4.948;2023-04-07T08:21:52;101873.64;;;13.13;60.21
59873;BME280;50750;51.636;4.948;2023-04-07T08:24:19;101874.88;;;13.13;59.98
59873;BME280;50750;51.636;4.948;2023-04-07T08:26:45;101877.85;;;13.14;60.17
59873;BME280;50750;51.636;4.948;2023-04-07T08:29:12;101879.45;;;13.14;60.17
59873;BME280;50750;51.636;4.948;2023-04-07T08:31:39;101881.55;;;13.13;60.22
59873;BME280;50750;51.636;4.948;2023-04-07T08:34:06;101879.98;;;13.13;60.18
59873;BME280;50750;51.636;4.948;2023-04-07T08:36:32;101883.66;;;13.13;60.14
59873;BME280;50750;51.636;4.948;2023-04-07T08:38:59;101885.60;;;13.14;60.21
59873;BME280;50750;51.636;4.948;2023-04-07T08:41:37;101883.66;;;13.14;60.08
59873;BME280;50750;51.636;4.948;2023-04-07T08:44:05;101884.89;;;13.13;60.14
59873;BME280;50750;51.636;4.948;2023-04-07T08:46:33;101890.16;;;13.13;60.24
59873;BME280;50750;51.636;4.948;2023-04-07T08:49:00;101890.34;;;13.14;60.11
59873;BME280;50750;51.636;4.948;2023-04-07T08:51:29;101894.91;;;13.13;60.09
59873;BME280;50750;51.636;4.948;2023-04-07T08:53:59;101898.77;;;13.14;60.02
59873;BME280;50750;51.636;4.948;2023-04-07T08:56:31;101901.95;;;13.13;59.98
59873;BME280;50750;51.636;4.948;2023-04-07T08:59:00;101903.91;;;13.12;60.28
59873;BME280;50750;51.636;4.948;2023-04-07T09:01:28;101905.85;;;13.12;60.36
59873;BME280;50750;51.636;4.948;2023-04-07T09:03:56;101906.20;;;13.12;60.20
59873;BME280;50750;51.636;4.948;2023-04-07T09:06:23;101902.16;;;13.12;60.37
59873;BME280;50750;51.636;4.948;2023-04-07T09:08:50;101907.41;;;13.13;60.30
59873;BME280;50750;51.636;4.948;2023-04-07T09:11:17;101906.55;;;13.12;60.17
59873;BME280;50750;51.636;4.948;2023-04-07T09:13:43;101912.70;;;13.12;60.14
59873;BME280;50750;51.636;4.948;2023-04-07T09:16:10;101914.08;;;13.13;60.18
59873;BME280;50750;51.636;4.948;2023-04-07T09:18:39;101912.33;;;13.13;60.15
59873;BME280;50750;51.636;4.948;2023-04-07T09:21:06;101911.27;;;13.13;60.09
59873;BME280;50750;51.636;4.948;2023-04-07T09:23:36;101914.77;;;13.14;60.30
59873;BME280;50750;51.636;4.948;2023-04-07T09:26:22;101916.34;;;13.15;60.11
59873;BME280;50750;51.636;4.948;2023-04-07T09:31:22;101922.16;;;13.14;60.29
59873;BME280;50750;51.636;4.948;2023-04-07T09:33:51;101924.63;;;13.14;60.16
59873;BME280;50750;51.636;4.948;2023-04-07T09:36:18;101924.61;;;13.15;60.08
59873;BME280;50750;51.636;4.948;2023-04-07T09:38:45;101918.45;;;13.15;60.16
59873;BME280;50750;51.636;4.948;2023-04-07T09:41:14;101922.50;;;13.14;60.20
59873;BME280;50750;51.636;4.948;2023-04-07T09:43:45;101922.31;;;13.15;60.14
59873;BME280;50750;51.636;4.948;2023-04-07T09:46:18;101924.06;;;13.15;60.25
59873;BME280;50750;51.636;4.948;2023-04-07T09:48:45;101926.69;;;13.15;60.15
59873;BME280;50750;51.636;4.948;2023-04-07T09:51:14;101925.82;;;13.15;60.18
59873;BME280;50750;51.636;4.948;2023-04-07T09:53:45;101924.77;;;13.15;60.26
59873;BME280;50750;51.636;4.948;2023-04-07T09:56:14;101928.42;;;13.16;60.27
59873;BME280;50750;51.636;4.948;2023-04-07T09:58:45;101927.58;;;13.15;60.12
59873;BME280;50750;51.636;4.948;2023-04-07T10:01:14;101931.62;;;13.15;60.28
59873;BME280;50750;51.636;4.948;2023-04-07T10:03:42;101931.25;;;13.16;60.09
59873;BME280;50750;51.636;4.948;2023-04-07T10:06:09;101933.00;;;13.16;60.28
59873;BME280;50750;51.636;4.948;2023-04-07T10:08:40;101933.52;;;13.16;60.10
59873;BME280;50750;51.636;4.948;2023-04-07T10:11:08;101929.66;;;13.16;60.22
59873;BME280;50750;51.636;4.948;2023-04-07T10:13:37;101936.51;;;13.16;60.14
59873;BME280;50750;51.636;4.948;2023-04-07T10:16:06;101935.46;;;13.17;60.13
59873;BME280;50750;51.636;4.948;2023-04-07T10:18:34;101944.59;;;13.17;60.22
59873;BME280;50750;51.636;4.948;2023-04-07T10:21:03;101939.48;;;13.17;60.24
59873;BME280;50750;51.636;4.948;2023-04-07T10:23:53;101945.99;;;13.17;60.22
59873;BME280;50750;51.636;4.948;2023-04-07T10:26:25;101943.86;;;13.18;60.07
59873;BME280;50750;51.636;4.948;2023-04-07T10:28:58;101943.70;;;13.17;60.37
59873;BME280;50750;51.636;4.948;2023-04-07T10:31:26;101947.92;;;13.17;60.17
59873;BME280;50750;51.636;4.948;2023-04-07T10:33:53;101951.77;;;13.18;60.15
59873;BME280;50750;51.636;4.948;2023-04-07T10:36:21;101953.70;;;13.18;60.26
59873;BME280;50750;51.636;4.948;2023-04-07T10:41:34;101956.34;;;13.18;60.29
59873;BME280;50750;51.636;4.948;2023-04-07T10:44:03;101962.49;;;13.18;59.92
59873;BME280;50750;51.636;4.948;2023-04-07T10:49:13;101966.36;;;13.18;60.10
59873;BME280;50750;51.636;4.948;2023-04-07T10:51:40;101967.59;;;13.18;60.12
59873;BME280;50750;51.636;4.948;2023-04-07T10:54:19;101970.94;;;13.18;60.25
59873;BME280;50750;51.636;4.948;2023-04-07T10:59:30;101972.34;;;13.18;60.22
59873;BME280;50750;51.636;4.948;2023-04-07T11:04:41;101974.27;;;13.18;60.06
59873;BME280;50750;51.636;4.948;2023-04-07T11:07:09;101972.53;;;13.18;60.22
59873;BME280;50750;51.636;4.948;2023-04-07T11:09:36;101973.58;;;13.18;60.32
59873;BME280;50750;51.636;4.948;2023-04-07T11:12:03;101973.55;;;13.19;60.25
59873;BME280;50750;51.636;4.948;2023-04-07T11:14:33;101973.58;;;13.18;60.13
59873;BME280;50750;51.636;4.948;2023-04-07T11:17:02;101974.45;;;13.19;60.10
59873;BME280;50750;51.636;4.948;2023-04-07T11:19:30;101973.21;;;13.18;60.30
59873;BME280;50750;51.636;4.948;2023-04-07T11:22:18;101975.88;;;13.18;60.06
59873;BME280;50750;51.636;4.948;2023-04-07T11:24:45;101975.86;;;13.18;60.19
59873;BME280;50750;51.636;4.948;2023-04-07T11:27:12;101978.67;;;13.18;60.27
59873;BME280;50750;51.636;4.948;2023-04-07T11:29:39;101976.58;;;13.18;60.01
59873;BME280;50750;51.636;4.948;2023-04-07T11:32:06;101977.45;;;13.18;60.02
59873;BME280;50750;51.636;4.948;2023-04-07T11:34:36;101973.23;;;13.18;60.27
59873;BME280;50750;51.636;4.948;2023-04-07T11:39:53;101980.27;;;13.18;60.16
59873;BME280;50750;51.636;4.948;2023-04-07T11:42:33;101982.20;;;13.18;60.22
59873;BME280;50750;51.636;4.948;2023-04-07T11:45:00;101980.95;;;13.19;60.26
59873;BME280;50750;51.636;4.948;2023-04-07T11:47:38;101981.83;;;13.19;60.40
59873;BME280;50750;51.636;4.948;2023-04-07T11:50:06;101986.05;;;13.19;60.30
59873;BME280;50750;51.636;4.948;2023-04-07T11:52:46;101987.45;;;13.19;60.04
59873;BME280;50750;51.636;4.948;2023-04-07T11:55:20;101987.98;;;13.19;60.28
59873;BME280;50750;51.636;4.948;2023-04-07T11:57:48;101990.79;;;13.19;60.13
59873;BME280;50750;51.636;4.948;2023-04-07T12:00:16;101992.37;;;13.20;60.25
59873;BME280;50750;51.636;4.948;2023-04-07T12:02:43;101995.88;;;13.20;60.10
59873;BME280;50750;51.636;4.948;2023-04-07T12:05:11;101997.11;;;13.20;60.27
59873;BME280;50750;51.636;4.948;2023-04-07T12:07:38;101997.80;;;13.20;60.15
59873;BME280;50750;51.636;4.948;2023-04-07T12:10:19;102000.63;;;13.20;60.24
59873;BME280;50750;51.636;4.948;2023-04-07T12:12:46;101999.76;;;13.20;60.27
59873;BME280;50750;51.636;4.948;2023-04-07T12:15:14;102004.66;;;13.20;60.14
59873;BME280;50750;51.636;4.948;2023-04-07T12:17:45;102005.89;;;13.20;60.17
59873;BME280;50750;51.636;4.948;2023-04-07T12:20:13;102009.39;;;13.21;60.15
59873;BME280;50750;51.636;4.948;2023-04-07T12:22:40;102009.91;;;13.21;60.15
59873;BME280;50750;51.636;4.948;2023-04-07T12:25:07;102011.50;;;13.21;59.96
59873;BME280;50750;51.636;4.948;2023-04-07T12:27:34;102015.02;;;13.21;59.99
59873;BME280;50750;51.636;4.948;2023-04-07T12:30:00;102015.55;;;13.21;60.09
59873;BME280;50750;51.636;4.948;2023-04-07T12:32:27;102017.83;;;13.21;60.13
59873;BME280;50750;51.636;4.948;2023-04-07T12:34:54;102021.17;;;13.21;60.03
59873;BME280;50750;51.636;4.948;2023-04-07T12:37:21;102022.05;;;13.21;60.02
59873;BME280;50750;51.636;4.948;2023-04-07T12:39:47;102025.38;;;13.21;60.25
59873;BME280;50750;51.636;4.948;2023-04-07T12:42:13;102025.92;;;13.22;60.18
59873;BME280;50750;51.636;4.948;2023-04-07T12:44:40;102023.29;;;13.22;60.14
59873;BME280;50750;51.636;4.948;2023-04-07T12:47:07;102022.05;;;13.21;60.09
59873;BME280;50750;51.636;4.948;2023-04-07T12:49:33;102024.86;;;13.22;60.35
59873;BME280;50750;51.636;4.948;2023-04-07T12:52:00;102027.15;;;13.22;60.11
59873;BME280;50750;51.636;4.948;2023-04-07T12:54:26;102029.09;;;13.22;60.26
59873;BME280;50750;51.636;4.948;2023-04-07T12:56:53;102025.91;;;13.22;60.17
59873;BME280;50750;51.636;4.948;2023-04-07T12:59:22;102026.45;;;13.21;60.11
59873;BME280;50750;51.636;4.948;2023-04-07T13:01:49;102027.50;;;13.22;60.16
59873;BME280;50750;51.636;4.948;2023-04-07T13:04:16;102034.70;;;13.22;60.11
59873;BME280;50750;51.636;4.948;2023-04-07T13:06:43;102030.66;;;13.21;60.05
59873;BME280;50750;51.636;4.948;2023-04-07T13:09:09;102035.58;;;13.22;60.26
59873;BME280;50750;51.636;4.948;2023-04-07T13:11:36;102038.76;;;13.22;60.37
59873;BME280;50750;51.636;4.948;2023-04-07T13:14:03;102038.58;;;13.22;60.13